KRWL/RWL METAR and TAF weather

Enter ICAO airport designator
Station Type Date Time Source
KRWL METAR 2020/09/26 11:53 UTC NOAA

KRWL 261153Z AUTO 25024G35KT 10SM CLR 14/M05 A2999 RMK AO2 PK WND 25036/1117 SLP058 60000 T01441050 10183 20117 58010


Station Type Date Time Source
KRWL Decoded METAR 2020/09/26 11:53 UTC NOAA

RAWLINS MUNICIPAL AIRPORT, WY, United States (KRWL) 41-48N 107-12W
Sep 26, 2020 - 07:53 AM EDT / 2020.09.26 1153 UTC
Wind: from the WSW (250 degrees) at 28 MPH (24 KT) gusting to 40 MPH (35 KT):0
Visibility: 10 mile(s):0
Sky conditions: clear
Temperature: 57.9 F (14.4 C)
Dew Point: 23.0 F (-5.0 C)
Relative Humidity: 25%
Pressure (altimeter): 29.99 in. Hg (1015 hPa)
Pressure tendency: 0.03 inches (1.0 hPa) lower than three hours ago
ob: KRWL 261153Z AUTO 25024G35KT 10SM CLR 14/M05 A2999 RMK AO2 PK WND 25036/1117 SLP058 60000 T01441050 10183 20117 58010
cycle: 12

Station Type Date Time Source
KRWL TAF 2020/09/26 12:54 UTC NOAA

TAF KRWL 261153Z 2612/2712 25020G30KT P6SM SCT150
FM261500 26035G45KT P6SM OVC100
FM270100 26025G35KT P6SM SCT200

Example: see airport list